createdAt,value
2022-10-17T00:01:27.831Z,17.30
2022-10-17T00:04:00.499Z,18.38
2022-10-17T00:06:33.068Z,18.35
2022-10-17T00:09:05.902Z,19.17
2022-10-17T00:11:38.374Z,17.98
2022-10-17T00:14:10.891Z,18.80
2022-10-17T00:16:43.487Z,17.48
2022-10-17T00:19:15.990Z,17.23
2022-10-17T00:21:50.546Z,17.08
2022-10-17T00:24:23.067Z,17.13
2022-10-17T00:26:55.603Z,17.05
2022-10-17T00:29:28.102Z,16.67
2022-10-17T00:32:00.621Z,17.58
2022-10-17T00:34:33.308Z,17.17
2022-10-17T00:37:05.959Z,18.05
2022-10-17T00:39:39.010Z,17.85
2022-10-17T00:42:13.695Z,17.02
2022-10-17T00:44:48.060Z,17.13
2022-10-17T00:47:22.230Z,18.90
2022-10-17T00:49:55.401Z,18.80
2022-10-17T00:52:30.200Z,19.00
2022-10-17T00:57:45.659Z,19.70
2022-10-17T01:00:20.609Z,20.20
2022-10-17T01:02:53.346Z,21.02
2022-10-17T01:05:27.463Z,20.73
2022-10-17T01:08:01.451Z,20.33
2022-10-17T01:10:52.897Z,20.77
2022-10-17T01:13:42.444Z,21.50
2022-10-17T01:16:23.878Z,21.63
2022-10-17T01:19:19.079Z,21.38
2022-10-17T01:22:00.746Z,21.23
2022-10-17T01:24:58.478Z,19.17
2022-10-17T01:27:43.554Z,19.42
2022-10-17T01:30:32.903Z,19.25
2022-10-17T01:33:09.791Z,19.35
2022-10-17T01:35:54.216Z,20.00
2022-10-17T01:38:37.150Z,18.98
2022-10-17T01:41:18.910Z,20.25
2022-10-17T01:43:59.214Z,19.85
2022-10-17T01:46:39.302Z,19.48
2022-10-17T01:49:15.109Z,18.23
2022-10-17T01:51:53.218Z,18.92
2022-10-17T01:54:32.978Z,18.35
2022-10-17T01:57:09.049Z,19.20
2022-10-17T01:59:46.558Z,17.83
2022-10-17T02:02:21.380Z,20.50
2022-10-17T02:04:57.488Z,18.58
2022-10-17T02:07:30.825Z,19.58
2022-10-17T02:10:14.519Z,19.70
2022-10-17T02:12:55.815Z,19.42
2022-10-17T02:15:46.243Z,19.00
2022-10-17T02:18:35.690Z,18.83
2022-10-17T02:21:18.695Z,18.27
2022-10-17T02:24:05.116Z,17.67
2022-10-17T02:26:50.748Z,18.98
2022-10-17T02:29:28.696Z,18.60
2022-10-17T02:32:12.127Z,18.67
2022-10-17T02:34:49.724Z,17.88
2022-10-17T02:37:28.096Z,17.90
2022-10-17T02:40:02.313Z,17.58
2022-10-17T02:42:36.321Z,18.25
2022-10-17T02:45:10.416Z,17.70
2022-10-17T02:47:58.412Z,17.88
2022-10-17T02:50:43.707Z,16.48
2022-10-17T02:53:25.937Z,16.63
2022-10-17T02:56:11.138Z,16.27
2022-10-17T02:58:46.694Z,14.82
2022-10-17T03:01:20.827Z,15.05
2022-10-17T03:04:06.494Z,14.75
2022-10-17T03:06:40.394Z,14.70
2022-10-17T03:09:13.714Z,13.77
2022-10-17T03:11:47.075Z,13.82
2022-10-17T03:14:19.713Z,13.65
2022-10-17T03:16:52.457Z,13.68
2022-10-17T03:19:25.484Z,13.52
2022-10-17T03:21:58.868Z,13.90
2022-10-17T03:24:31.432Z,14.93
2022-10-17T03:27:04.430Z,13.23
2022-10-17T03:29:37.050Z,16.30
2022-10-17T03:32:11.703Z,17.23
2022-10-17T03:34:45.298Z,17.08
2022-10-17T03:37:18.448Z,18.67
2022-10-17T03:39:51.107Z,17.25
2022-10-17T03:42:24.253Z,18.55
2022-10-17T03:44:56.859Z,20.08
2022-10-17T03:47:30.260Z,18.30
2022-10-17T03:50:04.434Z,18.83
2022-10-17T03:52:40.571Z,20.65
2022-10-17T03:55:14.766Z,21.48
2022-10-17T03:57:47.612Z,20.48
2022-10-17T04:00:22.433Z,20.20
2022-10-17T04:03:01.255Z,21.63
2022-10-17T04:05:33.921Z,23.33
2022-10-17T04:08:06.364Z,23.42
2022-10-17T04:11:01.635Z,24.35
2022-10-17T04:13:35.110Z,24.92
2022-10-17T04:16:11.854Z,23.85
2022-10-17T04:18:56.158Z,25.27
2022-10-17T04:21:31.264Z,23.85
2022-10-17T04:24:11.979Z,25.05
2022-10-17T04:26:51.486Z,24.48
2022-10-17T04:29:26.606Z,23.00
2022-10-17T04:32:06.504Z,22.40
2022-10-17T04:34:50.345Z,20.38
2022-10-17T04:37:25.104Z,20.30
2022-10-17T04:42:36.617Z,16.13
2022-10-17T04:45:10.204Z,15.32
2022-10-17T04:47:43.324Z,14.10
2022-10-17T04:50:16.244Z,13.45
2022-10-17T04:53:08.759Z,11.48
2022-10-17T04:55:41.570Z,12.38
2022-10-17T04:58:14.666Z,12.93
2022-10-17T05:00:47.297Z,12.63
2022-10-17T05:03:27.284Z,11.77
2022-10-17T05:06:06.831Z,13.20
2022-10-17T05:08:40.061Z,12.65
2022-10-17T05:11:32.536Z,12.05
2022-10-17T05:14:05.239Z,14.60
2022-10-17T05:16:38.952Z,13.80
2022-10-17T05:19:12.274Z,12.90
2022-10-17T05:21:50.311Z,13.43
2022-10-17T05:24:22.968Z,12.95
2022-10-17T05:26:55.439Z,12.50
2022-10-17T05:29:28.178Z,13.55
2022-10-17T05:32:10.067Z,13.90
2022-10-17T05:34:43.778Z,14.40
2022-10-17T05:37:16.912Z,13.55
2022-10-17T05:39:54.605Z,14.00
2022-10-17T05:42:27.903Z,15.18
2022-10-17T05:45:02.416Z,14.75
2022-10-17T05:47:37.414Z,14.48
2022-10-17T05:50:10.756Z,14.75
2022-10-17T05:53:03.242Z,14.88
2022-10-17T05:55:37.475Z,13.70
2022-10-17T05:58:17.691Z,15.10
2022-10-17T06:01:07.072Z,15.23
2022-10-17T06:03:43.022Z,14.70
2022-10-17T06:06:16.505Z,15.18
2022-10-17T06:08:50.807Z,16.23
2022-10-17T06:11:29.790Z,16.90
2022-10-17T06:14:02.922Z,15.90
2022-10-17T06:16:36.094Z,15.00
2022-10-17T06:19:08.761Z,16.80
2022-10-17T06:21:41.323Z,15.52
2022-10-17T06:24:20.138Z,14.43
2022-10-17T06:26:53.018Z,14.38
2022-10-17T06:29:27.492Z,14.80
2022-10-17T06:32:00.586Z,14.52
2022-10-17T06:34:33.604Z,13.30
2022-10-17T06:37:06.238Z,14.02
2022-10-17T06:39:45.273Z,15.75
2022-10-17T06:42:21.638Z,15.77
2022-10-17T06:45:10.327Z,16.58
2022-10-17T06:47:50.927Z,15.27
2022-10-17T06:50:39.326Z,16.30
2022-10-17T06:53:18.833Z,15.52
2022-10-17T06:56:01.816Z,15.63
2022-10-17T06:58:51.581Z,16.25
2022-10-17T07:01:32.615Z,16.42
2022-10-17T07:04:06.628Z,16.42
2022-10-17T07:06:40.051Z,16.10
2022-10-17T07:09:23.248Z,16.70
2022-10-17T07:11:56.897Z,16.93
2022-10-17T07:14:32.517Z,17.25
2022-10-17T07:17:05.962Z,17.33
2022-10-17T07:19:38.876Z,16.45
2022-10-17T07:22:14.077Z,16.77
2022-10-17T07:27:39.736Z,14.68
2022-10-17T07:30:12.876Z,15.15
2022-10-17T07:32:54.694Z,13.57
2022-10-17T07:35:27.848Z,13.30
2022-10-17T07:38:00.785Z,12.82
2022-10-17T07:40:33.579Z,12.73
2022-10-17T07:43:07.202Z,12.93
2022-10-17T07:45:42.213Z,12.35
2022-10-17T07:50:49.709Z,12.77
2022-10-17T07:53:22.297Z,13.18
2022-10-17T07:55:55.554Z,12.93
2022-10-17T07:58:31.545Z,13.45
2022-10-17T08:01:08.366Z,17.83
2022-10-17T08:03:46.347Z,15.70
2022-10-17T08:06:19.140Z,16.70
2022-10-17T08:08:52.189Z,17.83
2022-10-17T08:11:25.865Z,16.88
2022-10-17T08:13:58.468Z,16.85
2022-10-17T08:16:31.227Z,17.42
2022-10-17T08:19:04.903Z,17.48
2022-10-17T08:21:38.313Z,16.83
2022-10-17T08:24:10.912Z,16.90
2022-10-17T08:26:45.325Z,17.70
2022-10-17T08:29:20.077Z,16.90
2022-10-17T08:31:56.280Z,18.65
2022-10-17T08:34:33.740Z,17.17
2022-10-17T08:37:06.414Z,19.10
2022-10-17T08:39:39.092Z,16.67
2022-10-17T08:42:30.060Z,18.30
2022-10-17T08:45:20.052Z,18.48
2022-10-17T08:47:59.836Z,18.42
2022-10-17T08:50:41.270Z,19.15
2022-10-17T08:53:29.782Z,18.48
2022-10-17T08:56:19.479Z,18.70
2022-10-17T08:58:53.228Z,19.60
2022-10-17T09:01:47.112Z,18.75
2022-10-17T09:04:20.357Z,18.10
2022-10-17T09:07:06.767Z,18.40
2022-10-17T09:10:01.885Z,16.92
2022-10-17T09:12:52.124Z,13.93
2022-10-17T09:15:48.673Z,17.08
2022-10-17T09:18:40.428Z,16.30
2022-10-17T09:21:43.446Z,16.98
2022-10-17T09:24:26.442Z,15.98
2022-10-17T09:26:59.592Z,14.88
2022-10-17T09:29:37.944Z,13.85
2022-10-17T09:32:18.767Z,13.52
2022-10-17T09:34:54.134Z,14.90
2022-10-17T09:37:33.108Z,14.38
2022-10-17T09:40:09.507Z,15.13
2022-10-17T09:42:42.273Z,14.65
2022-10-17T09:45:20.076Z,18.05
2022-10-17T09:48:06.197Z,18.55
2022-10-17T09:50:40.614Z,21.95
2022-10-17T09:53:15.579Z,22.27
2022-10-17T09:55:55.824Z,22.83
2022-10-17T09:58:46.613Z,26.23
2022-10-17T10:01:25.059Z,29.50
2022-10-17T10:04:14.802Z,30.85
2022-10-17T10:07:05.793Z,31.65
2022-10-17T10:09:40.427Z,31.15
2022-10-17T10:12:32.477Z,32.20
2022-10-17T10:15:32.618Z,32.97
2022-10-17T10:18:25.692Z,35.05
2022-10-17T10:21:17.527Z,36.90
2022-10-17T10:24:11.370Z,33.92
2022-10-17T10:26:51.144Z,33.05
2022-10-17T10:29:38.401Z,39.40
2022-10-17T10:32:20.234Z,39.38
2022-10-17T10:34:59.712Z,37.88
2022-10-17T10:37:43.885Z,40.10
2022-10-17T10:40:21.622Z,38.03
2022-10-17T10:43:03.978Z,37.00
2022-10-17T10:45:54.360Z,40.40
2022-10-17T10:48:34.683Z,39.92
2022-10-17T10:51:18.556Z,40.35
2022-10-17T10:54:08.943Z,39.55
2022-10-17T10:56:49.943Z,39.83
2022-10-17T10:59:43.706Z,37.50
2022-10-17T11:02:33.236Z,39.47
2022-10-17T11:05:06.566Z,40.95
2022-10-17T11:07:58.682Z,38.15
2022-10-17T11:10:39.594Z,40.13
2022-10-17T11:13:18.796Z,40.97
2022-10-17T11:15:59.788Z,38.30
2022-10-17T11:18:51.709Z,37.67
2022-10-17T11:21:53.218Z,39.15
2022-10-17T11:24:33.737Z,38.25
2022-10-17T11:27:10.256Z,39.10
2022-10-17T11:29:46.291Z,37.83
2022-10-17T11:32:25.909Z,39.75
2022-10-17T11:35:07.079Z,40.60
2022-10-17T11:37:49.051Z,37.72
2022-10-17T11:40:30.347Z,40.10
2022-10-17T11:43:13.812Z,38.75
2022-10-17T11:45:52.893Z,36.90
2022-10-17T11:48:40.054Z,37.03
2022-10-17T11:54:18.956Z,40.77
2022-10-17T11:57:14.703Z,38.13
2022-10-17T12:00:07.773Z,38.97
2022-10-17T12:03:15.178Z,37.53
2022-10-17T12:05:57.276Z,36.90
2022-10-17T12:08:38.596Z,40.63
2022-10-17T12:11:35.413Z,39.63
2022-10-17T12:14:27.653Z,39.00
2022-10-17T12:17:02.285Z,40.28
2022-10-17T12:19:38.454Z,40.07
2022-10-17T12:22:22.439Z,39.70
2022-10-17T12:25:02.181Z,36.63
2022-10-17T12:27:39.873Z,38.65
2022-10-17T12:30:15.015Z,35.72
2022-10-17T12:33:07.979Z,35.05
2022-10-17T12:35:42.913Z,33.13
2022-10-17T12:38:20.313Z,38.33
2022-10-17T12:40:56.697Z,36.83
2022-10-17T12:43:30.250Z,35.85
2022-10-17T12:46:05.321Z,37.55
2022-10-17T12:48:40.793Z,35.35
2022-10-17T12:51:35.731Z,33.60
2022-10-17T12:54:14.213Z,32.45
2022-10-17T12:56:50.130Z,30.38
2022-10-17T12:59:28.121Z,32.83
2022-10-17T13:02:03.766Z,31.90
2022-10-17T13:04:37.926Z,30.10
2022-10-17T13:07:22.910Z,32.22
2022-10-17T13:09:57.000Z,32.42
2022-10-17T13:12:30.669Z,33.03
2022-10-17T13:17:43.792Z,26.33
2022-10-17T13:20:31.325Z,27.13
2022-10-17T13:23:05.563Z,26.58
2022-10-17T13:25:39.729Z,28.08
2022-10-17T13:28:14.095Z,27.80
2022-10-17T13:30:49.649Z,27.23
2022-10-17T13:33:42.599Z,26.45
2022-10-17T13:36:19.181Z,27.58
2022-10-17T13:38:53.485Z,26.38
2022-10-17T13:41:35.825Z,27.10
2022-10-17T13:44:18.417Z,25.55
2022-10-17T13:46:52.089Z,23.27
2022-10-17T13:49:42.152Z,23.13
2022-10-17T13:52:19.894Z,21.95
2022-10-17T13:54:54.079Z,22.63
2022-10-17T13:57:31.025Z,23.17
2022-10-17T14:00:13.421Z,21.80
2022-10-17T14:02:47.061Z,25.10
2022-10-17T14:05:23.653Z,22.48
2022-10-17T14:08:20.266Z,24.17
2022-10-17T14:13:30.452Z,23.98
2022-10-17T14:16:04.354Z,24.02
2022-10-17T14:18:38.226Z,26.85
2022-10-17T14:24:21.118Z,22.65
2022-10-17T14:26:59.277Z,24.27
2022-10-17T14:29:53.173Z,23.88
2022-10-17T14:32:26.315Z,24.17
2022-10-17T14:35:18.155Z,23.25
2022-10-17T14:37:58.799Z,24.27
2022-10-17T14:40:34.093Z,23.98
2022-10-17T14:45:40.759Z,22.52
2022-10-17T14:48:17.773Z,23.60
2022-10-17T14:51:10.544Z,23.90
2022-10-17T14:54:04.916Z,25.30
2022-10-17T14:56:42.402Z,25.20
2022-10-17T14:59:30.169Z,23.55
2022-10-17T15:02:12.417Z,21.83
2022-10-17T15:04:45.305Z,21.15
2022-10-17T15:07:19.533Z,21.88
2022-10-17T15:09:54.289Z,21.25
2022-10-17T15:12:27.448Z,20.48
2022-10-17T15:15:00.626Z,21.35
2022-10-17T15:17:35.014Z,21.70
2022-10-17T15:20:18.015Z,22.43
2022-10-17T15:22:54.857Z,22.70
2022-10-17T15:25:29.350Z,22.85
2022-10-17T15:28:02.010Z,22.02
2022-10-17T15:30:36.889Z,22.70
2022-10-17T15:33:09.839Z,22.92
2022-10-17T15:35:44.003Z,21.98
2022-10-17T15:38:19.166Z,22.83
2022-10-17T15:40:52.691Z,22.52
2022-10-17T15:43:26.063Z,23.33
2022-10-17T15:46:01.403Z,22.27
2022-10-17T15:51:07.054Z,22.70
2022-10-17T15:53:40.080Z,23.77
2022-10-17T15:56:25.534Z,24.77
2022-10-17T15:58:58.866Z,24.50
2022-10-17T16:01:33.840Z,21.75
2022-10-17T16:04:06.834Z,21.27
2022-10-17T16:06:39.945Z,20.35
2022-10-17T16:09:13.160Z,18.98
2022-10-17T16:11:48.013Z,33.28
2022-10-17T16:14:48.774Z,70.55
2022-10-17T16:17:22.135Z,18.38
2022-10-17T16:19:55.672Z,17.45
2022-10-17T16:22:33.290Z,16.65
2022-10-17T16:25:10.641Z,17.27
2022-10-17T16:27:43.988Z,16.90
2022-10-17T16:30:19.645Z,16.63
2022-10-17T16:33:17.831Z,16.38
2022-10-17T16:35:50.560Z,16.85
2022-10-17T16:38:23.012Z,18.35
2022-10-17T16:40:55.378Z,17.25
2022-10-17T16:43:28.005Z,16.95
2022-10-17T16:46:04.295Z,16.98
2022-10-17T16:48:37.699Z,17.00
2022-10-17T16:51:12.427Z,17.45
2022-10-17T16:53:46.666Z,18.13
2022-10-17T16:56:21.837Z,18.10
2022-10-17T16:58:54.774Z,17.60
2022-10-17T17:01:29.659Z,18.05
2022-10-17T17:04:05.292Z,18.52
2022-10-17T17:06:38.106Z,16.92
2022-10-17T17:09:10.834Z,18.38
2022-10-17T17:11:43.702Z,19.13
2022-10-17T17:14:16.445Z,19.75
2022-10-17T17:16:49.185Z,31.48
2022-10-17T17:19:21.908Z,20.63
2022-10-17T17:21:54.883Z,20.10
2022-10-17T17:24:28.593Z,21.10
2022-10-17T17:27:01.383Z,20.75
2022-10-17T17:29:34.445Z,21.00
2022-10-17T17:32:08.846Z,21.25
2022-10-17T17:34:41.713Z,22.95
2022-10-17T17:37:14.547Z,23.35
2022-10-17T17:39:47.466Z,24.15
2022-10-17T17:42:20.450Z,24.27
2022-10-17T17:44:53.106Z,23.90
2022-10-17T17:47:29.966Z,23.98
2022-10-17T17:50:30.617Z,23.95
2022-10-17T17:53:06.618Z,25.52
2022-10-17T17:55:39.394Z,24.33
2022-10-17T17:58:13.495Z,24.60
2022-10-17T18:00:48.561Z,24.65
2022-10-17T18:03:21.540Z,24.10
2022-10-17T18:05:54.837Z,24.33
2022-10-17T18:08:27.775Z,25.80
2022-10-17T18:11:00.681Z,28.50
2022-10-17T18:13:34.593Z,27.20
2022-10-17T18:16:13.490Z,26.52
2022-10-17T18:18:46.213Z,26.45
2022-10-17T18:21:19.836Z,31.85
2022-10-17T18:23:53.227Z,29.73
2022-10-17T18:26:26.041Z,30.30
2022-10-17T18:28:59.244Z,28.60
2022-10-17T18:31:36.295Z,26.30
2022-10-17T18:34:09.891Z,25.58
2022-10-17T18:36:42.725Z,28.58
2022-10-17T18:39:15.434Z,27.45
2022-10-17T18:41:48.080Z,27.38
2022-10-17T18:44:20.856Z,29.20
2022-10-17T18:46:53.613Z,29.00
2022-10-17T18:49:26.578Z,29.63
2022-10-17T18:52:00.145Z,28.40
2022-10-17T18:54:35.171Z,28.95
2022-10-17T18:57:08.130Z,29.30
2022-10-17T18:59:41.227Z,27.92
2022-10-17T19:02:14.583Z,29.20
2022-10-17T19:07:25.075Z,29.33
2022-10-17T19:09:57.834Z,29.90
2022-10-17T19:12:30.540Z,29.65
2022-10-17T19:15:03.395Z,31.30
2022-10-17T19:17:36.172Z,30.38
2022-10-17T19:20:10.488Z,30.63
2022-10-17T19:22:44.145Z,31.40
2022-10-17T19:25:17.137Z,32.17
2022-10-17T19:27:50.987Z,38.38
2022-10-17T19:30:23.745Z,36.05
2022-10-17T19:32:56.494Z,33.80
2022-10-17T19:35:29.034Z,33.42
2022-10-17T19:38:01.594Z,39.42
2022-10-17T19:40:36.194Z,35.72
2022-10-17T19:43:08.956Z,33.65
2022-10-17T19:45:41.852Z,34.63
2022-10-17T19:48:21.494Z,34.67
2022-10-17T19:50:54.731Z,33.05
2022-10-17T19:53:29.760Z,32.53
2022-10-17T19:56:02.716Z,34.22
2022-10-17T19:58:44.776Z,33.30
2022-10-17T20:01:21.847Z,33.95
2022-10-17T20:03:55.731Z,32.92
2022-10-17T20:06:29.134Z,35.22
2022-10-17T20:09:02.167Z,33.78
2022-10-17T20:11:35.982Z,34.30
2022-10-17T20:14:08.880Z,34.10
2022-10-17T20:16:41.674Z,36.13
2022-10-17T20:19:15.683Z,35.13
2022-10-17T20:21:48.390Z,35.17
2022-10-17T20:24:21.209Z,34.38
2022-10-17T20:26:53.721Z,33.05
2022-10-17T20:29:28.727Z,33.95
2022-10-17T20:32:01.481Z,36.85
2022-10-17T20:34:35.895Z,38.95
2022-10-17T20:37:08.652Z,39.28
2022-10-17T20:39:42.991Z,37.35
2022-10-17T20:42:16.211Z,34.05
2022-10-17T20:44:48.978Z,34.63
2022-10-17T20:47:40.036Z,32.10
2022-10-17T20:50:15.030Z,32.92
2022-10-17T20:52:47.677Z,33.00
2022-10-17T20:55:20.301Z,32.63
2022-10-17T20:57:54.474Z,32.63
2022-10-17T21:00:27.248Z,33.90
2022-10-17T21:02:59.873Z,32.83
2022-10-17T21:05:32.556Z,32.47
2022-10-17T21:08:05.664Z,34.70
2022-10-17T21:10:38.328Z,33.28
2022-10-17T21:13:10.926Z,33.13
2022-10-17T21:15:43.636Z,34.50
2022-10-17T21:18:16.199Z,33.08
2022-10-17T21:20:48.765Z,36.22
2022-10-17T21:23:21.325Z,33.45
2022-10-17T21:25:53.902Z,35.95
2022-10-17T21:28:26.530Z,35.97
2022-10-17T21:31:19.358Z,36.45
2022-10-17T21:33:55.119Z,33.35
2022-10-17T21:36:28.673Z,34.03
2022-10-17T21:39:01.273Z,35.45
2022-10-17T21:41:34.169Z,34.15
2022-10-17T21:44:12.639Z,35.00
2022-10-17T21:46:46.083Z,33.75
2022-10-17T21:49:20.949Z,33.30
2022-10-17T21:51:53.844Z,33.80
2022-10-17T21:54:26.299Z,33.60
2022-10-17T21:56:58.883Z,32.45
2022-10-17T21:59:35.019Z,31.77
2022-10-17T22:02:07.548Z,33.75
2022-10-17T22:04:40.094Z,32.63
2022-10-17T22:07:12.707Z,34.20
2022-10-17T22:09:45.290Z,33.83
2022-10-17T22:12:18.016Z,32.95
2022-10-17T22:14:50.629Z,32.97
2022-10-17T22:17:23.429Z,31.77
2022-10-17T22:19:56.138Z,31.52
2022-10-17T22:22:28.844Z,31.98
2022-10-17T22:25:01.473Z,30.17
2022-10-17T22:27:34.189Z,31.05
2022-10-17T22:30:07.642Z,30.83
2022-10-17T22:32:40.270Z,30.27
2022-10-17T22:35:13.192Z,30.17
2022-10-17T22:37:45.747Z,29.98
2022-10-17T22:40:18.263Z,31.42
2022-10-17T22:42:50.782Z,30.05
2022-10-17T22:45:23.531Z,31.35
2022-10-17T22:47:56.686Z,30.25
2022-10-17T22:50:29.514Z,29.35
2022-10-17T22:53:02.277Z,29.52
2022-10-17T22:55:34.827Z,31.20
2022-10-17T22:58:07.349Z,30.40
2022-10-17T23:00:39.809Z,31.40
2022-10-17T23:03:12.379Z,33.05
2022-10-17T23:05:45.297Z,32.92
2022-10-17T23:08:18.275Z,31.27
2022-10-17T23:10:51.118Z,31.98
2022-10-17T23:13:23.902Z,31.05
2022-10-17T23:15:58.040Z,31.85
2022-10-17T23:21:08.571Z,30.33
2022-10-17T23:23:41.186Z,29.42
2022-10-17T23:26:14.905Z,28.80
2022-10-17T23:28:47.500Z,29.67
2022-10-17T23:31:22.044Z,28.80
2022-10-17T23:33:54.857Z,30.03
2022-10-17T23:36:27.506Z,28.60
2022-10-17T23:39:00.185Z,30.20
2022-10-17T23:41:32.913Z,30.08
2022-10-17T23:44:05.707Z,29.92
2022-10-17T23:46:38.603Z,29.85
2022-10-17T23:49:11.690Z,30.05
2022-10-17T23:51:44.145Z,30.02
2022-10-17T23:54:16.627Z,30.80
2022-10-17T23:56:49.260Z,29.75
2022-10-17T23:59:22.050Z,28.88
